createdAt,value
2022-12-26T00:00:20.013Z,100.00
2022-12-26T00:02:46.539Z,100.00
2022-12-26T00:05:12.956Z,100.00
2022-12-26T00:07:39.429Z,100.00
2022-12-26T00:10:06.407Z,100.00
2022-12-26T00:12:32.925Z,100.00
2022-12-26T00:14:59.294Z,100.00
2022-12-26T00:17:25.669Z,100.00
2022-12-26T00:19:52.027Z,100.00
2022-12-26T00:22:18.613Z,100.00
2022-12-26T00:24:44.959Z,100.00
2022-12-26T00:27:11.303Z,100.00
2022-12-26T00:29:37.642Z,100.00
2022-12-26T00:32:04.325Z,100.00
2022-12-26T00:34:30.865Z,100.00
2022-12-26T00:36:57.214Z,100.00
2022-12-26T00:39:23.537Z,100.00
2022-12-26T00:41:49.891Z,100.00
2022-12-26T00:44:16.246Z,99.96
2022-12-26T00:46:42.642Z,100.00
2022-12-26T00:49:09.051Z,100.00
2022-12-26T00:51:38.265Z,100.00
2022-12-26T00:54:04.673Z,99.66
2022-12-26T00:56:31.002Z,100.00
2022-12-26T00:58:57.369Z,100.00
2022-12-26T01:01:24.069Z,100.00
2022-12-26T01:03:51.265Z,100.00
2022-12-26T01:06:18.249Z,100.00
2022-12-26T01:08:44.998Z,100.00
2022-12-26T01:11:13.753Z,99.86
2022-12-26T01:13:40.544Z,100.00
2022-12-26T01:16:07.939Z,100.00
2022-12-26T01:18:34.941Z,99.97
2022-12-26T01:21:04.481Z,100.00
2022-12-26T01:23:30.901Z,100.00
2022-12-26T01:26:16.940Z,100.00
2022-12-26T01:28:43.654Z,100.00
2022-12-26T01:31:10.035Z,100.00
2022-12-26T01:33:36.553Z,100.00
2022-12-26T01:36:04.225Z,100.00
2022-12-26T01:38:30.586Z,100.00
2022-12-26T01:41:15.569Z,100.00
2022-12-26T01:44:00.024Z,100.00
2022-12-26T01:46:35.732Z,100.00
2022-12-26T01:49:08.989Z,100.00
2022-12-26T01:51:40.070Z,100.00
2022-12-26T01:54:37.948Z,100.00
2022-12-26T01:56:56.253Z,100.00
2022-12-26T01:59:26.479Z,100.00
2022-12-26T02:01:54.648Z,100.00
2022-12-26T02:04:48.313Z,100.00
2022-12-26T02:07:14.925Z,100.00
2022-12-26T02:09:41.585Z,100.00
2022-12-26T02:12:36.081Z,100.00
2022-12-26T02:15:03.635Z,100.00
2022-12-26T02:17:30.095Z,100.00
2022-12-26T02:20:01.937Z,100.00
2022-12-26T02:22:47.114Z,100.00
2022-12-26T02:25:58.535Z,100.00
2022-12-26T02:28:53.064Z,100.00
2022-12-26T02:31:32.022Z,100.00
2022-12-26T02:34:15.912Z,100.00
2022-12-26T02:37:18.549Z,100.00
2022-12-26T02:40:04.039Z,100.00
2022-12-26T02:42:47.424Z,100.00
2022-12-26T02:45:46.842Z,100.00
2022-12-26T02:49:02.023Z,100.00
2022-12-26T02:52:19.728Z,100.00
2022-12-26T02:55:12.851Z,100.00
2022-12-26T02:58:09.289Z,100.00
2022-12-26T03:00:58.184Z,100.00
2022-12-26T03:03:48.828Z,100.00
2022-12-26T03:06:48.041Z,100.00
2022-12-26T03:09:37.248Z,100.00
2022-12-26T03:12:26.997Z,100.00
2022-12-26T03:15:04.216Z,100.00
2022-12-26T03:17:40.664Z,100.00
2022-12-26T03:20:17.544Z,100.00
2022-12-26T03:22:57.005Z,100.00
2022-12-26T03:25:59.325Z,100.00
2022-12-26T03:28:26.842Z,100.00
2022-12-26T03:30:55.864Z,100.00
2022-12-26T03:33:40.996Z,100.00
2022-12-26T03:36:11.268Z,100.00
2022-12-26T03:39:13.022Z,100.00
2022-12-26T03:42:17.977Z,100.00
2022-12-26T03:45:05.802Z,100.00
2022-12-26T03:48:18.637Z,100.00
2022-12-26T03:51:09.049Z,100.00
2022-12-26T03:54:06.370Z,100.00
2022-12-26T03:57:01.376Z,100.00
2022-12-26T03:59:52.863Z,100.00
2022-12-26T04:02:39.916Z,100.00
2022-12-26T04:05:27.272Z,98.77
2022-12-26T04:08:19.187Z,99.27
2022-12-26T04:11:11.072Z,98.41
2022-12-26T04:14:12.045Z,98.43
2022-12-26T04:17:03.382Z,98.52
2022-12-26T04:19:32.423Z,98.58
2022-12-26T04:22:27.559Z,98.32
2022-12-26T04:25:50.816Z,100.00
2022-12-26T04:28:38.520Z,99.59
2022-12-26T04:31:33.039Z,100.00
2022-12-26T04:34:28.888Z,99.53
2022-12-26T04:37:21.854Z,98.92
2022-12-26T04:40:10.063Z,100.00
2022-12-26T04:42:57.379Z,100.00
2022-12-26T04:45:25.952Z,99.99
2022-12-26T04:48:11.035Z,100.00
2022-12-26T04:50:52.188Z,100.00
2022-12-26T04:53:19.976Z,100.00
2022-12-26T04:55:46.305Z,99.83
2022-12-26T04:58:12.634Z,100.00
2022-12-26T05:00:39.137Z,100.00
2022-12-26T05:03:24.114Z,100.00
2022-12-26T05:06:10.505Z,100.00
2022-12-26T05:08:59.106Z,100.00
2022-12-26T05:11:26.681Z,100.00
2022-12-26T05:13:55.368Z,100.00
2022-12-26T05:16:41.729Z,99.75
2022-12-26T05:19:29.474Z,100.00
2022-12-26T05:22:14.945Z,100.00
2022-12-26T05:25:00.581Z,100.00
2022-12-26T05:28:00.882Z,99.20
2022-12-26T05:30:27.324Z,99.93
2022-12-26T05:33:12.289Z,100.00
2022-12-26T05:35:39.374Z,100.00
2022-12-26T05:38:06.179Z,100.00
2022-12-26T05:40:32.583Z,100.00
2022-12-26T05:42:58.973Z,100.00
2022-12-26T05:45:25.371Z,100.00
2022-12-26T05:47:58.394Z,99.72
2022-12-26T05:50:24.724Z,100.00
2022-12-26T05:52:51.072Z,99.17
2022-12-26T05:55:18.041Z,99.98
2022-12-26T05:57:44.420Z,98.73
2022-12-26T06:00:11.802Z,97.63
2022-12-26T06:02:38.724Z,97.17
2022-12-26T06:05:05.494Z,97.43
2022-12-26T06:07:31.856Z,97.67
2022-12-26T06:09:58.236Z,97.55
2022-12-26T06:12:24.547Z,98.13
2022-12-26T06:14:50.926Z,98.21
2022-12-26T06:17:17.279Z,98.57
2022-12-26T06:19:46.927Z,99.95
2022-12-26T06:22:13.621Z,100.00
2022-12-26T06:24:40.226Z,100.00
2022-12-26T06:27:06.584Z,100.00
2022-12-26T06:29:32.975Z,100.00
2022-12-26T06:31:59.447Z,100.00
2022-12-26T06:34:27.620Z,99.74
2022-12-26T06:36:55.402Z,99.89
2022-12-26T06:39:22.538Z,99.89
2022-12-26T06:41:48.860Z,99.88
2022-12-26T06:44:18.523Z,98.45
2022-12-26T06:46:45.431Z,99.71
2022-12-26T06:49:11.809Z,100.00
2022-12-26T06:51:38.228Z,100.00
2022-12-26T06:54:04.860Z,99.42
2022-12-26T06:56:32.339Z,99.41
2022-12-26T06:59:01.017Z,99.10
2022-12-26T07:01:29.085Z,100.00
2022-12-26T07:03:56.476Z,100.00
2022-12-26T07:06:31.940Z,100.00
2022-12-26T07:09:05.328Z,99.57
2022-12-26T07:11:36.930Z,100.00
2022-12-26T07:14:04.363Z,99.62
2022-12-26T07:16:31.316Z,99.94
2022-12-26T07:18:58.586Z,98.94
2022-12-26T07:21:26.276Z,97.66
2022-12-26T07:23:53.850Z,97.80
2022-12-26T07:26:20.616Z,97.85
2022-12-26T07:28:46.997Z,97.22
2022-12-26T07:31:18.485Z,98.81
2022-12-26T07:33:52.612Z,96.94
2022-12-26T07:36:19.632Z,95.88
2022-12-26T07:38:46.901Z,96.82
2022-12-26T07:41:32.014Z,96.15
2022-12-26T07:43:58.429Z,96.21
2022-12-26T07:46:24.769Z,95.47
2022-12-26T07:48:51.179Z,95.05
2022-12-26T07:51:17.552Z,95.22
2022-12-26T07:53:43.903Z,94.53
2022-12-26T07:56:10.249Z,94.49
2022-12-26T07:58:36.818Z,95.28
2022-12-26T08:01:04.961Z,94.65
2022-12-26T08:03:31.566Z,95.52
2022-12-26T08:05:58.412Z,95.40
2022-12-26T08:08:24.739Z,94.28
2022-12-26T08:11:06.228Z,94.75
2022-12-26T08:13:33.946Z,95.74
2022-12-26T08:16:05.536Z,95.92
2022-12-26T08:18:31.972Z,96.00
2022-12-26T08:20:58.607Z,95.55
2022-12-26T08:23:25.061Z,95.71
2022-12-26T08:25:51.463Z,94.68
2022-12-26T08:28:18.043Z,94.04
2022-12-26T08:30:45.437Z,93.95
2022-12-26T08:33:12.816Z,92.94
2022-12-26T08:35:40.359Z,94.44
2022-12-26T08:38:08.042Z,94.83
2022-12-26T08:40:43.041Z,94.34
2022-12-26T08:46:03.148Z,93.19
2022-12-26T08:48:30.281Z,93.29
2022-12-26T08:51:02.313Z,92.87
2022-12-26T08:53:30.517Z,92.42
2022-12-26T08:55:57.594Z,92.62
2022-12-26T08:58:24.066Z,92.54
2022-12-26T09:00:55.265Z,92.55
2022-12-26T09:03:22.375Z,92.50
2022-12-26T09:05:49.193Z,91.89
2022-12-26T09:08:15.573Z,92.59
2022-12-26T09:10:41.998Z,90.91
2022-12-26T09:13:08.436Z,92.98
2022-12-26T09:15:34.873Z,90.06
2022-12-26T09:18:01.290Z,91.47
2022-12-26T09:20:27.690Z,92.08
2022-12-26T09:22:55.341Z,91.67
2022-12-26T09:25:25.041Z,90.23
2022-12-26T09:27:58.807Z,90.19
2022-12-26T09:30:25.606Z,90.02
2022-12-26T09:32:53.042Z,89.46
2022-12-26T09:35:19.587Z,88.97
2022-12-26T09:37:45.971Z,89.38
2022-12-26T09:40:25.493Z,87.95
2022-12-26T09:43:53.577Z,89.31
2022-12-26T09:46:40.827Z,88.47
2022-12-26T09:49:20.225Z,87.74
2022-12-26T09:51:52.582Z,87.94
2022-12-26T09:54:33.632Z,88.13
2022-12-26T09:57:05.280Z,87.69
2022-12-26T09:59:57.501Z,87.17
2022-12-26T10:02:26.059Z,87.03
2022-12-26T10:04:54.739Z,86.78
2022-12-26T10:07:24.053Z,86.31
2022-12-26T10:09:59.493Z,85.49
2022-12-26T10:12:51.939Z,85.52
2022-12-26T10:15:36.825Z,85.25
2022-12-26T10:18:18.048Z,85.10
2022-12-26T10:20:59.299Z,85.08
2022-12-26T10:23:39.737Z,84.28
2022-12-26T10:26:13.463Z,84.56
2022-12-26T10:28:59.845Z,82.82
2022-12-26T10:31:50.612Z,83.58
2022-12-26T10:34:36.719Z,83.26
2022-12-26T10:37:42.029Z,83.00
2022-12-26T10:40:17.318Z,82.63
2022-12-26T10:42:47.500Z,82.79
2022-12-26T10:45:24.328Z,83.98
2022-12-26T10:47:51.770Z,83.57
2022-12-26T10:50:28.099Z,82.83
2022-12-26T10:52:55.841Z,81.14
2022-12-26T10:55:31.814Z,81.06
2022-12-26T10:58:06.926Z,81.43
2022-12-26T11:00:34.410Z,81.72
2022-12-26T11:03:15.632Z,80.69
2022-12-26T11:06:10.363Z,80.38
2022-12-26T11:08:46.102Z,79.44
2022-12-26T11:11:45.447Z,79.98
2022-12-26T11:14:34.171Z,79.21
2022-12-26T11:17:04.946Z,80.60
2022-12-26T11:19:38.140Z,80.29
2022-12-26T11:22:27.783Z,80.27
2022-12-26T11:25:09.551Z,79.12
2022-12-26T11:27:39.919Z,79.77
2022-12-26T11:30:27.784Z,79.57
2022-12-26T11:33:14.255Z,81.36
2022-12-26T11:35:52.516Z,83.18
2022-12-26T11:38:42.505Z,83.65
2022-12-26T11:41:32.267Z,84.63
2022-12-26T11:44:22.496Z,85.73
2022-12-26T11:47:07.864Z,85.82
2022-12-26T11:50:01.535Z,86.03
2022-12-26T11:52:57.771Z,85.05
2022-12-26T11:55:24.123Z,83.99
2022-12-26T11:57:59.063Z,82.69
2022-12-26T12:00:26.216Z,83.77
2022-12-26T12:02:52.692Z,86.58
2022-12-26T12:05:35.350Z,91.29
2022-12-26T12:08:15.679Z,92.06
2022-12-26T12:10:51.033Z,93.53
2022-12-26T12:13:38.897Z,93.37
2022-12-26T12:16:08.239Z,93.67
2022-12-26T12:18:46.830Z,95.42
2022-12-26T12:21:31.739Z,95.96
2022-12-26T12:24:26.413Z,95.89
2022-12-26T12:27:09.473Z,97.60
2022-12-26T12:30:17.189Z,97.29
2022-12-26T12:32:57.299Z,98.38
2022-12-26T12:36:13.012Z,97.85
2022-12-26T12:38:57.692Z,98.88
2022-12-26T12:41:23.953Z,97.48
2022-12-26T12:44:07.229Z,96.78
2022-12-26T12:47:19.287Z,97.87
2022-12-26T12:49:48.538Z,98.04
2022-12-26T12:52:34.612Z,97.98
2022-12-26T12:55:27.796Z,97.71
2022-12-26T12:58:12.908Z,92.72
2022-12-26T13:00:48.861Z,92.20
2022-12-26T13:03:44.293Z,91.44
2022-12-26T13:06:16.697Z,88.37
2022-12-26T13:08:48.313Z,88.38
2022-12-26T13:11:19.937Z,87.21
2022-12-26T13:13:53.802Z,86.61
2022-12-26T13:16:25.602Z,85.55
2022-12-26T13:19:05.539Z,85.07
2022-12-26T13:21:35.987Z,85.04
2022-12-26T13:24:24.581Z,85.31
2022-12-26T13:27:03.213Z,84.85
2022-12-26T13:29:45.546Z,84.87
2022-12-26T13:32:23.001Z,84.72
2022-12-26T13:34:51.616Z,84.63
2022-12-26T13:37:39.885Z,84.40
2022-12-26T13:40:16.746Z,83.74
2022-12-26T13:43:10.835Z,83.71
2022-12-26T13:45:37.273Z,83.19
2022-12-26T13:48:15.912Z,82.34
2022-12-26T13:50:56.613Z,82.20
2022-12-26T13:53:25.986Z,81.41
2022-12-26T13:56:04.675Z,80.16
2022-12-26T13:58:54.209Z,79.75
2022-12-26T14:01:32.594Z,79.60
2022-12-26T14:04:14.279Z,78.88
2022-12-26T14:06:53.073Z,76.04
2022-12-26T14:09:32.702Z,74.84
2022-12-26T14:12:23.492Z,74.37
2022-12-26T14:15:01.637Z,73.77
2022-12-26T14:17:48.985Z,73.34
2022-12-26T14:20:39.436Z,73.36
2022-12-26T14:23:20.090Z,74.25
2022-12-26T14:26:02.713Z,74.39
2022-12-26T14:29:01.849Z,73.52
2022-12-26T14:31:40.306Z,73.61
2022-12-26T14:34:55.615Z,73.25
2022-12-26T14:37:35.656Z,73.54
2022-12-26T14:40:26.956Z,74.19
2022-12-26T14:43:11.957Z,73.61
2022-12-26T14:45:41.733Z,74.18
2022-12-26T14:48:17.009Z,74.00
2022-12-26T14:50:51.820Z,74.15
2022-12-26T14:53:24.336Z,73.93
2022-12-26T14:55:53.638Z,74.03
2022-12-26T14:58:26.282Z,74.17
2022-12-26T15:00:53.716Z,72.62
2022-12-26T15:03:36.864Z,72.79
2022-12-26T15:06:18.609Z,73.53
2022-12-26T15:09:04.047Z,73.57
2022-12-26T15:12:06.436Z,72.89
2022-12-26T15:14:54.107Z,73.01
2022-12-26T15:17:26.413Z,72.60
2022-12-26T15:20:25.568Z,72.82
2022-12-26T15:23:07.175Z,72.88
2022-12-26T15:25:59.064Z,72.00
2022-12-26T15:28:43.716Z,72.40
2022-12-26T15:31:15.986Z,72.66
2022-12-26T15:33:53.086Z,72.30
2022-12-26T15:36:57.689Z,72.55
2022-12-26T15:39:43.591Z,72.55
2022-12-26T15:42:48.001Z,71.79
2022-12-26T15:45:42.389Z,73.09
2022-12-26T15:48:31.936Z,71.53
2022-12-26T15:51:09.548Z,71.23
2022-12-26T15:53:54.276Z,70.29
2022-12-26T15:56:39.008Z,71.02
2022-12-26T15:59:30.481Z,70.40
2022-12-26T16:01:58.339Z,70.75
2022-12-26T16:04:37.056Z,70.67
2022-12-26T16:07:08.993Z,70.24
2022-12-26T16:09:43.160Z,70.24
2022-12-26T16:12:24.166Z,70.82
2022-12-26T16:15:00.703Z,70.87
2022-12-26T16:17:27.994Z,70.50
2022-12-26T16:19:54.601Z,71.56
2022-12-26T16:22:44.529Z,70.75
2022-12-26T16:25:16.723Z,69.12
2022-12-26T16:27:45.677Z,69.50
2022-12-26T16:30:16.400Z,69.24
2022-12-26T16:32:46.299Z,68.80
2022-12-26T16:35:26.031Z,68.95
2022-12-26T16:37:55.107Z,68.40
2022-12-26T16:40:31.374Z,68.54
2022-12-26T16:43:25.957Z,68.53
2022-12-26T16:45:55.281Z,67.01
2022-12-26T16:48:24.141Z,67.42
2022-12-26T16:50:55.614Z,68.03
2022-12-26T16:53:42.454Z,67.72
2022-12-26T16:56:27.758Z,67.35
2022-12-26T16:59:17.354Z,68.19
2022-12-26T17:01:50.311Z,68.11
2022-12-26T17:04:25.227Z,68.87
2022-12-26T17:06:55.971Z,68.67
2022-12-26T17:09:24.360Z,69.00
2022-12-26T17:11:53.521Z,69.82
2022-12-26T17:14:25.221Z,69.43
2022-12-26T17:17:01.087Z,69.62
2022-12-26T17:19:31.521Z,69.00
2022-12-26T17:22:22.791Z,69.39
2022-12-26T17:24:51.383Z,69.04
2022-12-26T17:27:23.304Z,68.87
2022-12-26T17:30:01.305Z,68.92
2022-12-26T17:32:37.098Z,69.36
2022-12-26T17:35:16.635Z,68.83
2022-12-26T17:37:44.110Z,68.64
2022-12-26T17:40:13.497Z,69.19
2022-12-26T17:42:48.893Z,70.69
2022-12-26T17:45:27.470Z,70.45
2022-12-26T17:47:55.278Z,70.31
2022-12-26T17:50:23.965Z,70.31
2022-12-26T17:52:51.027Z,69.78
2022-12-26T17:55:26.726Z,70.96
2022-12-26T17:57:53.695Z,71.70
2022-12-26T18:00:22.971Z,70.77
2022-12-26T18:02:49.866Z,70.06
2022-12-26T18:05:17.356Z,70.45
2022-12-26T18:07:45.685Z,71.02
2022-12-26T18:10:21.750Z,69.55
2022-12-26T18:12:48.690Z,69.70
2022-12-26T18:15:15.651Z,69.65
2022-12-26T18:17:42.469Z,70.50
2022-12-26T18:20:15.919Z,69.60
2022-12-26T18:22:42.281Z,70.13
2022-12-26T18:25:11.986Z,69.63
2022-12-26T18:27:38.635Z,69.95
2022-12-26T18:30:05.495Z,69.60
2022-12-26T18:32:33.604Z,69.69
2022-12-26T18:35:00.126Z,69.70
2022-12-26T18:37:29.258Z,70.21
2022-12-26T18:39:55.635Z,69.54
2022-12-26T18:42:22.074Z,69.87
2022-12-26T18:44:48.565Z,70.68
2022-12-26T18:47:20.015Z,71.56
2022-12-26T18:49:47.194Z,71.23
2022-12-26T18:52:17.504Z,71.68
2022-12-26T18:54:44.655Z,72.05
2022-12-26T18:57:17.593Z,72.15
2022-12-26T18:59:44.136Z,71.98
2022-12-26T19:02:16.751Z,72.34
2022-12-26T19:04:43.229Z,71.81
2022-12-26T19:07:11.234Z,71.60
2022-12-26T19:09:37.663Z,72.13
2022-12-26T19:12:04.370Z,71.58
2022-12-26T19:14:30.796Z,72.63
2022-12-26T19:16:57.140Z,70.93
2022-12-26T19:19:26.536Z,71.98
2022-12-26T19:21:52.894Z,70.80
2022-12-26T19:24:19.246Z,71.07
2022-12-26T19:26:45.712Z,70.51
2022-12-26T19:29:12.121Z,71.41
2022-12-26T19:31:38.604Z,70.91
2022-12-26T19:34:05.296Z,70.24
2022-12-26T19:36:31.678Z,69.84
2022-12-26T19:38:58.396Z,69.73
2022-12-26T19:41:24.769Z,69.78
2022-12-26T19:43:56.375Z,69.44
2022-12-26T19:46:23.365Z,68.94
2022-12-26T19:48:49.781Z,69.21
2022-12-26T19:51:17.168Z,69.10
2022-12-26T19:53:44.697Z,69.80
2022-12-26T19:56:23.724Z,68.58
2022-12-26T19:58:56.165Z,69.31
2022-12-26T20:01:25.922Z,68.58
2022-12-26T20:03:57.663Z,67.78
2022-12-26T20:06:26.433Z,68.08
2022-12-26T20:08:55.788Z,69.10
2022-12-26T20:11:24.723Z,68.98
2022-12-26T20:13:51.579Z,68.52
2022-12-26T20:16:54.477Z,68.55
2022-12-26T20:19:07.074Z,68.85
2022-12-26T20:21:33.887Z,68.56
2022-12-26T20:24:01.175Z,68.74
2022-12-26T20:26:28.971Z,68.92
2022-12-26T20:28:57.831Z,68.50
2022-12-26T20:31:24.213Z,68.79
2022-12-26T20:33:52.057Z,69.39
2022-12-26T20:36:21.236Z,69.36
2022-12-26T20:38:50.594Z,69.07
2022-12-26T20:41:17.553Z,68.35
2022-12-26T20:43:44.061Z,68.85
2022-12-26T20:46:14.399Z,68.83
2022-12-26T20:48:41.429Z,70.02
2022-12-26T20:51:10.279Z,69.11
2022-12-26T20:53:37.111Z,69.34
2022-12-26T20:56:04.463Z,69.31
2022-12-26T20:58:35.593Z,68.92
2022-12-26T21:01:08.001Z,68.98
2022-12-26T21:03:35.707Z,69.17
2022-12-26T21:06:05.950Z,69.55
2022-12-26T21:08:32.620Z,69.39
2022-12-26T21:11:10.980Z,69.48
2022-12-26T21:13:38.308Z,68.83
2022-12-26T21:16:10.061Z,69.17
2022-12-26T21:18:37.057Z,69.26
2022-12-26T21:21:17.183Z,69.45
2022-12-26T21:23:44.422Z,69.84
2022-12-26T21:26:18.609Z,70.13
2022-12-26T21:28:44.886Z,70.00
2022-12-26T21:31:12.006Z,70.68
2022-12-26T21:33:44.313Z,70.53
2022-12-26T21:36:13.365Z,70.29
2022-12-26T21:38:40.673Z,70.36
2022-12-26T21:41:11.368Z,70.24
2022-12-26T21:43:38.122Z,69.93
2022-12-26T21:46:11.095Z,69.86
2022-12-26T21:48:37.510Z,70.19
2022-12-26T21:51:08.535Z,70.07
2022-12-26T21:53:35.439Z,70.54
2022-12-26T21:56:06.555Z,70.81
2022-12-26T21:58:52.999Z,70.39
2022-12-26T22:01:21.418Z,70.54
2022-12-26T22:04:06.600Z,71.58
2022-12-26T22:06:33.069Z,71.32
2022-12-26T22:08:59.994Z,70.89
2022-12-26T22:11:45.510Z,71.39
2022-12-26T22:14:12.611Z,71.60
2022-12-26T22:16:39.510Z,72.17
2022-12-26T22:19:06.613Z,72.23
2022-12-26T22:21:33.218Z,72.29
2022-12-26T22:23:59.887Z,72.92
2022-12-26T22:26:28.051Z,72.63
2022-12-26T22:28:55.928Z,72.79
2022-12-26T22:31:32.189Z,72.56
2022-12-26T22:34:26.199Z,72.65
2022-12-26T22:36:55.744Z,72.53
2022-12-26T22:39:22.192Z,72.91
2022-12-26T22:41:48.534Z,72.60
2022-12-26T22:44:15.339Z,73.14
2022-12-26T22:46:42.123Z,72.78
2022-12-26T22:49:09.050Z,73.23
2022-12-26T22:51:36.812Z,72.67
2022-12-26T22:54:03.193Z,72.64
2022-12-26T22:56:29.982Z,72.93
2022-12-26T22:59:00.515Z,72.58
2022-12-26T23:01:27.127Z,72.98
2022-12-26T23:03:53.630Z,72.51
2022-12-26T23:06:31.552Z,72.61
2022-12-26T23:09:01.154Z,72.60
2022-12-26T23:11:34.679Z,73.10
2022-12-26T23:14:02.598Z,72.64
2022-12-26T23:16:51.555Z,73.40
2022-12-26T23:20:01.518Z,73.44
2022-12-26T23:22:28.614Z,73.22
2022-12-26T23:24:54.948Z,73.87
2022-12-26T23:27:40.060Z,73.50
2022-12-26T23:30:19.365Z,74.58
2022-12-26T23:32:54.743Z,75.03
2022-12-26T23:35:22.412Z,74.49
2022-12-26T23:37:49.221Z,74.00
2022-12-26T23:40:16.929Z,74.41
2022-12-26T23:42:43.533Z,74.89
2022-12-26T23:45:11.679Z,75.04
2022-12-26T23:47:39.528Z,75.03
2022-12-26T23:50:07.110Z,74.89
2022-12-26T23:52:34.032Z,75.19
2022-12-26T23:55:00.397Z,76.13
2022-12-26T23:57:26.732Z,75.16
2022-12-26T23:59:53.253Z,75.64
